Time;durP1;ratioP1;P1;durP2;ratioP2;P2;SDS_P1;SDS_P2;PMS_P1;PMS_P2;Temp;Humidity;BMP_temperature;BMP_pressure;BME280_temperature;BME280_humidity;BME280_pressure;Samples;Min_cycle;Max_cycle;Signal;HPM_P1;HPM_P2
2024/01/03 00:00:55;;;;;;;0.88;0.88;;;;;;;-3.49;65.91;99026.09;5067240;28;20036;-70
2024/01/03 00:03:22;;;;;;;0.60;0.60;;;;;;;-3.74;66.13;99007.66;5067428;28;20021;-67
2024/01/03 00:05:48;;;;;;;0.70;0.70;;;;;;;-3.45;65.44;98998.25;5066973;28;20044;-67
2024/01/03 00:08:32;;;;;;;1.20;1.13;;;;;;;-3.59;66.13;98996.19;5049288;28;20032;-66
2024/01/03 00:10:58;;;;;;;0.80;0.80;;;;;;;-3.53;66.07;98991.28;5066994;28;20108;-68
2024/01/03 00:13:32;;;;;;;0.57;0.57;;;;;;;-3.62;65.98;99011.34;5067435;28;20077;-66
2024/01/03 00:16:03;;;;;;;1.48;0.82;;;;;;;-3.61;66.46;99008.84;5066711;28;20028;-66
2024/01/03 00:19:00;;;;;;;0.88;0.77;;;;;;;-3.59;65.94;98992.84;5049145;28;20047;-67
2024/01/03 00:21:27;;;;;;;0.70;0.70;;;;;;;-3.72;66.29;99010.25;5049068;28;20116;-66
2024/01/03 00:24:02;;;;;;;1.02;0.93;;;;;;;-3.68;66.07;98978.22;5049011;28;20021;-66
2024/01/03 00:26:30;;;;;;;0.95;0.95;;;;;;;-3.48;65.58;98993.94;5048893;28;20025;-67
2024/01/03 00:28:59;;;;;;;1.15;1.10;;;;;;;-3.64;66.13;99046.81;5066637;28;20029;-66
2024/01/03 00:31:34;;;;;;;0.90;0.90;;;;;;;-3.60;65.79;98958.97;5066436;28;20409;-65
2024/01/03 00:33:59;;;;;;;0.70;0.70;;;;;;;-3.73;66.98;99013.59;5066789;28;20032;-67
2024/01/03 00:36:25;;;;;;;0.90;0.90;;;;;;;-3.50;65.87;98982.91;5048819;28;20389;-67
2024/01/03 00:38:51;;;;;;;1.13;1.00;;;;;;;-3.44;65.04;99005.03;5048487;28;20025;-67
2024/01/03 00:41:16;;;;;;;2.03;1.92;;;;;;;-3.58;65.95;98990.34;5048760;28;20040;-67
2024/01/03 00:43:41;;;;;;;0.60;0.60;;;;;;;-3.70;65.91;98978.16;5066471;28;20050;-66
2024/01/03 00:46:08;;;;;;;0.75;0.75;;;;;;;-3.80;66.74;98946.63;5065869;28;20045;-66
2024/01/03 00:48:34;;;;;;;0.70;0.70;;;;;;;-3.55;65.77;98965.03;5047602;28;20021;-67
2024/01/03 00:51:01;;;;;;;1.08;0.98;;;;;;;-3.31;64.69;98976.63;5066428;28;20093;-66
2024/01/03 00:53:27;;;;;;;13.85;1.30;;;;;;;-3.54;65.43;98948.97;5048600;28;20033;-66
2024/01/03 00:55:53;;;;;;;1.67;1.33;;;;;;;-3.61;65.74;98949.66;5066322;28;20102;-66
2024/01/03 00:58:19;;;;;;;1.30;0.70;;;;;;;-3.61;65.32;98967.41;5066479;28;20040;-65
2024/01/03 01:00:45;;;;;;;2.97;0.85;;;;;;;-3.44;65.26;98970.38;5066066;28;20024;-68
2024/01/03 01:03:11;;;;;;;1.20;1.10;;;;;;;-3.61;65.28;98987.72;5048532;28;20044;-67
2024/01/03 01:05:37;;;;;;;0.98;0.90;;;;;;;-3.68;65.38;99012.06;5066243;28;20021;-65
2024/01/03 01:08:03;;;;;;;1.13;1.13;;;;;;;-3.60;65.48;98961.50;5066422;28;20025;-67
2024/01/03 01:10:28;;;;;;;0.60;0.60;;;;;;;-3.71;65.99;98971.41;5066190;28;20363;-66
2024/01/03 01:12:54;;;;;;;0.90;0.90;;;;;;;-3.69;65.91;98949.44;5066024;28;20017;-66
2024/01/03 01:15:19;;;;;;;0.90;0.90;;;;;;;-3.51;65.27;98943.13;5047957;28;20044;-65
2024/01/03 01:17:44;;;;;;;1.15;1.08;;;;;;;-3.73;65.67;98945.13;5066116;28;20028;-68
2024/01/03 01:20:10;;;;;;;1.13;1.05;;;;;;;-3.55;65.41;98947.28;5065619;28;20057;-67
2024/01/03 01:22:35;;;;;;;1.95;1.40;;;;;;;-3.70;65.50;98931.66;5065981;28;20031;-65
2024/01/03 01:25:01;;;;;;;1.05;0.90;;;;;;;-3.71;65.56;98922.31;5065669;28;20028;-66
2024/01/03 01:27:26;;;;;;;0.70;0.70;;;;;;;-3.74;65.62;98936.63;5065782;28;20040;-67
2024/01/03 01:29:51;;;;;;;1.15;1.00;;;;;;;-3.71;65.15;98900.38;5065286;28;20039;-67
2024/01/03 01:32:17;;;;;;;0.93;0.93;;;;;;;-3.59;65.11;98934.47;5065648;28;20055;-66
2024/01/03 01:34:42;;;;;;;0.75;0.75;;;;;;;-3.80;65.76;98925.50;5065490;28;20029;-67
2024/01/03 01:37:08;;;;;;;0.80;0.80;;;;;;;-3.87;66.47;98952.38;5065765;28;20026;-66
2024/01/03 01:39:33;;;;;;;1.05;0.98;;;;;;;-3.53;65.10;98909.25;5065481;28;20075;-68
2024/01/03 01:42:00;;;;;;;1.13;1.10;;;;;;;-3.45;64.28;98938.19;5065605;28;20049;-66
2024/01/03 01:44:25;;;;;;;0.75;0.75;;;;;;;-3.46;64.12;98938.16;5065562;28;20078;-66
2024/01/03 01:46:51;;;;;;;2.00;1.88;;;;;;;-3.50;64.28;98922.84;5065301;28;20025;-65
2024/01/03 01:49:18;;;;;;;1.05;0.95;;;;;;;-3.66;64.63;98908.09;5065422;28;20043;-66
2024/01/03 01:51:45;;;;;;;1.25;1.15;;;;;;;-3.76;65.26;98923.09;5065351;28;20048;-65
2024/01/03 01:54:15;;;;;;;0.70;0.70;;;;;;;-3.67;65.10;98912.28;5065284;28;20029;-67
2024/01/03 01:56:41;;;;;;;1.40;1.30;;;;;;;-3.54;64.72;98908.38;5065311;28;20032;-66
2024/01/03 01:59:07;;;;;;;1.60;1.23;;;;;;;-3.78;65.03;98876.53;5047149;28;20389;-66
2024/01/03 02:01:34;;;;;;;1.85;0.95;;;;;;;-3.70;64.83;98896.13;5046056;28;20421;-66
2024/01/03 02:04:02;;;;;;;2.42;1.27;;;;;;;-3.83;65.34;98893.28;5064457;28;20033;-65
2024/01/03 02:06:28;;;;;;;1.45;1.35;;;;;;;-3.83;65.82;98879.78;5065039;28;20436;-66
2024/01/03 02:08:53;;;;;;;0.70;0.70;;;;;;;-3.78;65.41;98888.34;5065162;28;20029;-65
2024/01/03 02:11:18;;;;;;;0.85;0.85;;;;;;;-3.67;64.69;98881.84;5065056;28;20025;-67
2024/01/03 02:13:44;;;;;;;1.05;1.05;;;;;;;-3.72;65.21;98898.63;5065157;28;20021;-66
2024/01/03 02:16:09;;;;;;;0.80;0.80;;;;;;;-3.86;65.63;98860.25;5046953;28;20024;-67
2024/01/03 02:18:35;;;;;;;0.90;0.90;;;;;;;-3.72;65.09;98877.50;5065172;28;20470;-67
2024/01/03 02:21:01;;;;;;;2.08;1.98;;;;;;;-3.87;65.24;98861.94;5064868;28;20084;-67
2024/01/03 02:23:26;;;;;;;1.00;0.90;;;;;;;-3.45;64.03;98831.63;5046951;28;20029;-67
2024/01/03 02:25:52;;;;;;;0.80;0.80;;;;;;;-3.66;64.18;98867.50;5064784;28;20025;-66
2024/01/03 02:28:17;;;;;;;0.80;0.80;;;;;;;-3.72;64.66;98857.22;5064980;28;20020;-66
2024/01/03 02:30:44;;;;;;;0.77;0.77;;;;;;;-3.48;64.12;98894.97;5046585;28;20044;-66
2024/01/03 02:33:11;;;;;;;4.53;1.90;;;;;;;-3.54;64.10;98852.56;5065249;28;20033;-66
2024/01/03 02:35:37;;;;;;;0.80;0.80;;;;;;;-3.69;64.33;98837.84;5046836;28;20025;-66
2024/01/03 02:38:02;;;;;;;1.90;1.77;;;;;;;-3.64;64.68;98896.28;5064866;28;20470;-66
2024/01/03 02:40:27;;;;;;;0.68;0.68;;;;;;;-3.72;64.34;98847.06;5064740;28;20021;-66
2024/01/03 02:42:53;;;;;;;0.95;0.80;;;;;;;-3.72;64.32;98837.75;5064751;28;20025;-65
2024/01/03 02:45:18;;;;;;;0.75;0.75;;;;;;;-3.70;64.57;98860.63;5064537;28;20041;-65
2024/01/03 02:47:43;;;;;;;0.85;0.85;;;;;;;-3.77;64.46;98844.41;5064413;28;20076;-67
2024/01/03 02:50:09;;;;;;;0.98;0.98;;;;;;;-3.61;64.20;98831.25;5064517;28;20021;-66
2024/01/03 02:52:34;;;;;;;5.90;1.23;;;;;;;-3.80;64.64;98824.91;5064675;28;20190;-66
2024/01/03 02:55:00;;;;;;;0.82;0.82;;;;;;;-3.78;64.57;98818.19;5064540;28;20029;-66
2024/01/03 02:57:26;;;;;;;1.92;1.83;;;;;;;-3.88;65.17;98818.78;5064739;28;20032;-66
2024/01/03 02:59:51;;;;;;;0.90;0.90;;;;;;;-3.68;64.66;98831.97;5064680;28;20052;-66
2024/01/03 03:02:17;;;;;;;0.80;0.80;;;;;;;-3.39;63.17;98871.53;5064313;28;20040;-65
2024/01/03 03:04:43;;;;;;;3.22;1.58;;;;;;;-3.46;63.37;98834.13;5064880;28;20044;-67
2024/01/03 03:07:08;;;;;;;0.82;0.82;;;;;;;-3.88;64.43;98804.44;5064100;28;20228;-66
2024/01/03 03:09:33;;;;;;;0.70;0.70;;;;;;;-3.91;64.84;98800.94;5064497;28;20032;-67
2024/01/03 03:11:59;;;;;;;1.20;1.00;;;;;;;-3.58;63.92;98811.88;5068015;28;20044;-67
2024/01/03 03:14:24;;;;;;;1.02;1.02;;;;;;;-3.77;64.11;98808.91;5068328;28;20468;-67
2024/01/03 03:16:49;;;;;;;1.52;0.93;;;;;;;-3.80;64.12;98796.16;5068144;28;20027;-67
2024/01/03 03:19:15;;;;;;;1.25;1.02;;;;;;;-3.83;64.73;98844.28;5068431;28;20027;-66
2024/01/03 03:21:40;;;;;;;1.00;0.82;;;;;;;-3.74;64.36;98847.03;5068045;28;20025;-67
2024/01/03 03:24:07;;;;;;;1.30;1.27;;;;;;;-3.74;63.84;98801.38;5068304;28;20064;-65
2024/01/03 03:26:32;;;;;;;2.25;1.73;;;;;;;-3.74;63.77;98794.59;5068281;28;20032;-65
2024/01/03 03:28:58;;;;;;;0.60;0.60;;;;;;;-3.73;63.89;98881.72;5068237;28;20029;-67
2024/01/03 03:31:24;;;;;;;0.70;0.70;;;;;;;-3.69;63.47;98822.59;5049746;28;20071;-68
2024/01/03 03:33:49;;;;;;;0.77;0.77;;;;;;;-3.55;63.15;98795.06;5068173;28;20056;-67
2024/01/03 03:36:15;;;;;;;4.95;1.85;;;;;;;-3.88;64.05;98806.09;5068021;28;20461;-66
2024/01/03 03:38:41;;;;;;;1.20;0.80;;;;;;;-3.64;63.22;98803.28;5067814;28;20035;-66
2024/01/03 03:41:10;;;;;;;0.85;0.85;;;;;;;-3.67;63.40;98800.69;5067862;28;20539;-67
2024/01/03 03:43:36;;;;;;;0.70;0.70;;;;;;;-3.65;62.92;98805.78;5067840;28;20044;-68
2024/01/03 03:46:01;;;;;;;0.80;0.80;;;;;;;-3.61;62.88;98818.56;5049601;28;20448;-66
2024/01/03 03:48:27;;;;;;;0.80;0.80;;;;;;;-3.59;62.90;98793.25;5067756;28;20021;-66
2024/01/03 03:50:52;;;;;;;1.00;0.88;;;;;;;-3.78;63.35;98808.03;5067611;28;20029;-66
2024/01/03 03:53:17;;;;;;;0.70;0.70;;;;;;;-3.71;63.27;98798.91;5050027;28;20116;-66
2024/01/03 03:55:43;;;;;;;0.70;0.70;;;;;;;-3.75;63.46;98780.22;5067549;28;20404;-67
2024/01/03 03:58:08;;;;;;;0.60;0.60;;;;;;;-3.93;64.17;98810.22;5049727;28;20028;-67
2024/01/03 04:00:33;;;;;;;1.33;1.23;;;;;;;-3.64;63.24;98804.97;5067483;28;20017;-67
2024/01/03 04:02:59;;;;;;;1.23;1.15;;;;;;;-3.64;63.32;98782.13;5067480;28;20021;-67
2024/01/03 04:05:24;;;;;;;0.80;0.80;;;;;;;-3.80;63.16;98788.56;5067349;28;20025;-67
2024/01/03 04:07:49;;;;;;;1.33;1.20;;;;;;;-3.77;63.54;98832.56;5067341;28;20159;-65
2024/01/03 04:10:15;;;;;;;0.80;0.80;;;;;;;-3.73;63.59;98805.63;5067034;28;20025;-66
2024/01/03 04:12:41;;;;;;;3.15;1.33;;;;;;;-3.62;62.79;98775.41;5067202;28;20381;-67
2024/01/03 04:15:07;;;;;;;0.65;0.65;;;;;;;-3.74;63.74;98832.66;5067078;28;20048;-66
2024/01/03 04:17:33;;;;;;;0.70;0.70;;;;;;;-3.67;63.00;98752.50;5067437;28;20036;-67
2024/01/03 04:19:59;;;;;;;1.13;1.02;;;;;;;-3.72;63.32;98806.47;5066889;28;20017;-67
2024/01/03 04:22:26;;;;;;;0.77;0.77;;;;;;;-3.72;62.88;98776.06;5066806;28;20108;-66
2024/01/03 04:24:51;;;;;;;0.70;0.70;;;;;;;-3.81;62.71;98749.66;5067059;28;20024;-66
2024/01/03 04:27:17;;;;;;;2.22;2.05;;;;;;;-3.68;62.88;98787.97;5066792;28;20045;-67
2024/01/03 04:29:42;;;;;;;0.70;0.70;;;;;;;-3.64;62.76;98843.00;5066764;28;20049;-67
2024/01/03 04:32:07;;;;;;;5.68;2.13;;;;;;;-3.78;63.21;98789.44;5066715;28;20105;-67
2024/01/03 04:34:33;;;;;;;0.60;0.60;;;;;;;-4.02;63.85;98761.00;5066735;28;20024;-66
2024/01/03 04:36:58;;;;;;;0.70;0.70;;;;;;;-3.95;63.67;98723.13;5066805;28;20032;-66
2024/01/03 04:39:24;;;;;;;0.90;0.90;;;;;;;-3.75;63.24;98781.88;5066709;28;20479;-67
2024/01/03 04:41:49;;;;;;;1.85;1.33;;;;;;;-3.79;63.46;98798.72;5048485;28;20022;-68
2024/01/03 04:44:14;;;;;;;1.08;1.05;;;;;;;-3.84;63.53;98761.38;5066389;28;20032;-66
2024/01/03 04:46:40;;;;;;;0.63;0.63;;;;;;;-3.77;63.66;98748.03;5066439;28;20044;-67
2024/01/03 04:49:05;;;;;;;1.50;0.95;;;;;;;-3.53;62.36;98744.34;5066572;28;20025;-66
2024/01/03 04:51:30;;;;;;;0.70;0.70;;;;;;;-3.63;62.63;98753.44;5066306;28;20029;-66
2024/01/03 04:53:56;;;;;;;0.60;0.60;;;;;;;-3.90;63.79;98782.41;5048442;28;20024;-67
2024/01/03 04:56:24;;;;;;;0.82;0.82;;;;;;;-3.80;63.16;98753.06;5066244;28;20036;-66
2024/01/03 04:58:50;;;;;;;0.80;0.80;;;;;;;-3.90;64.12;98759.59;5066453;28;20021;-66
2024/01/03 05:01:15;;;;;;;1.13;1.02;;;;;;;-3.81;63.35;98747.13;5065576;28;20036;-67
2024/01/03 05:03:41;;;;;;;0.88;0.85;;;;;;;-3.79;63.55;98759.81;5065102;28;20067;-67
2024/01/03 05:06:07;;;;;;;0.80;0.80;;;;;;;-3.65;62.84;98765.22;5047096;28;20058;-67
2024/01/03 05:08:33;;;;;;;0.77;0.68;;;;;;;-3.87;62.93;98731.75;5064989;28;20021;-67
2024/01/03 05:10:58;;;;;;;0.65;0.65;;;;;;;-3.70;63.02;98743.94;5065222;28;20089;-69
2024/01/03 05:13:25;;;;;;;0.90;0.90;;;;;;;-3.72;62.82;98819.16;5066248;28;20025;-68
2024/01/03 05:15:51;;;;;;;1.80;0.90;;;;;;;-3.41;61.85;98734.44;5047674;28;20021;-67
2024/01/03 05:18:16;;;;;;;1.50;1.40;;;;;;;-3.73;62.50;98772.66;5065756;28;20051;-67
2024/01/03 05:20:41;;;;;;;1.88;1.00;;;;;;;-3.79;62.62;98793.66;5065862;28;20017;-67
2024/01/03 05:23:07;;;;;;;1.35;1.05;;;;;;;-3.77;63.21;98774.25;5065966;28;20021;-67
2024/01/03 05:25:32;;;;;;;0.80;0.80;;;;;;;-3.74;63.02;98841.97;5065743;28;20024;-66
2024/01/03 05:27:57;;;;;;;1.02;0.93;;;;;;;-3.79;63.11;98754.75;5065783;28;20092;-67
2024/01/03 05:30:23;;;;;;;0.85;0.85;;;;;;;-3.78;63.22;98797.91;5065303;28;20052;-66
2024/01/03 05:32:48;;;;;;;1.00;1.00;;;;;;;-3.59;62.17;98739.13;5065248;28;20366;-66
2024/01/03 05:35:13;;;;;;;0.70;0.70;;;;;;;-3.55;61.41;98764.59;5065436;28;20029;-66
2024/01/03 05:37:39;;;;;;;1.08;1.00;;;;;;;-3.61;62.17;98772.09;5065492;28;20025;-66
2024/01/03 05:40:05;;;;;;;0.70;0.70;;;;;;;-3.72;62.74;98776.06;5065503;28;20099;-67
2024/01/03 05:42:32;;;;;;;0.80;0.80;;;;;;;-3.84;63.01;98747.03;5047250;28;20017;-67
2024/01/03 05:44:57;;;;;;;1.55;1.05;;;;;;;-3.87;63.34;98757.97;5065268;28;20025;-66
2024/01/03 05:47:22;;;;;;;0.70;0.70;;;;;;;-3.68;62.64;98753.31;5065127;28;20036;-67
2024/01/03 05:49:48;;;;;;;0.73;0.73;;;;;;;-3.61;62.31;98769.53;5065262;28;20025;-68
2024/01/03 05:52:13;;;;;;;0.80;0.80;;;;;;;-3.70;62.52;98770.19;5065476;28;20104;-68
2024/01/03 05:54:38;;;;;;;1.10;0.80;;;;;;;-3.85;62.58;98770.69;5046695;28;20025;-67
2024/01/03 05:57:04;;;;;;;0.80;0.80;;;;;;;-3.84;62.66;98772.41;5065466;28;20481;-66
2024/01/03 05:59:30;;;;;;;1.65;1.40;;;;;;;-3.75;62.59;98752.31;5047333;28;20063;-69
2024/01/03 06:01:55;;;;;;;0.70;0.70;;;;;;;-3.92;62.78;98764.63;5046097;28;20020;-67
2024/01/03 06:04:20;;;;;;;0.50;0.50;;;;;;;-3.88;62.92;98752.84;5047051;28;20020;-67
2024/01/03 06:06:46;;;;;;;0.70;0.70;;;;;;;-3.88;63.08;98763.00;5065448;28;20025;-66
2024/01/03 06:09:11;;;;;;;0.98;0.98;;;;;;;-3.76;61.97;98836.84;5064683;28;20032;-69
2024/01/03 06:11:37;;;;;;;0.80;0.80;;;;;;;-3.64;61.76;98789.75;5065107;28;20040;-69
2024/01/03 06:14:02;;;;;;;1.05;1.00;;;;;;;-3.69;61.97;98809.09;5065245;28;20025;-71
2024/01/03 06:16:27;;;;;;;1.08;1.00;;;;;;;-3.80;62.42;98760.66;5047164;28;20048;-71
2024/01/03 06:18:53;;;;;;;0.80;0.80;;;;;;;-3.64;61.67;98800.75;5065123;28;20025;-70
2024/01/03 06:21:18;;;;;;;0.80;0.80;;;;;;;-3.56;61.24;98785.69;5047344;28;20025;-71
2024/01/03 06:23:43;;;;;;;0.60;0.60;;;;;;;-3.82;61.88;98760.63;5065118;28;20588;-69
2024/01/03 06:26:09;;;;;;;0.80;0.80;;;;;;;-4.00;62.80;98772.03;5065126;28;20029;-70
2024/01/03 06:28:34;;;;;;;0.60;0.60;;;;;;;-3.78;62.12;98746.31;5065159;28;20419;-70
2024/01/03 06:31:01;;;;;;;0.77;0.75;;;;;;;-3.67;61.39;98769.38;5046441;28;20048;-70
2024/01/03 06:33:27;;;;;;;0.70;0.70;;;;;;;-3.78;61.79;98764.06;5065073;28;20029;-71
2024/01/03 06:35:52;;;;;;;1.40;0.88;;;;;;;-3.71;61.61;98773.53;5064890;28;20025;-70
2024/01/03 06:38:17;;;;;;;1.25;1.15;;;;;;;-3.86;62.10;98785.03;5046972;28;20096;-70
2024/01/03 06:40:43;;;;;;;1.17;0.88;;;;;;;-3.76;61.64;98755.69;5064666;28;20036;-69
2024/01/03 06:43:08;;;;;;;0.70;0.70;;;;;;;-3.74;61.33;98771.78;5064840;28;20036;-69
2024/01/03 06:45:34;;;;;;;0.80;0.80;;;;;;;-3.60;61.15;98768.72;5067756;28;20385;-71
2024/01/03 06:48:01;;;;;;;1.40;1.20;;;;;;;-3.65;61.05;98793.09;5051107;28;20076;-70
2024/01/03 06:50:26;;;;;;;0.70;0.70;;;;;;;-3.69;61.43;98771.03;5051013;28;20500;-70
2024/01/03 06:52:52;;;;;;;0.68;0.68;;;;;;;-3.88;61.62;98751.19;5050990;28;20049;-69
2024/01/03 06:55:17;;;;;;;1.02;1.02;;;;;;;-3.57;61.17;98799.22;5068923;28;20021;-70
2024/01/03 06:57:42;;;;;;;0.93;0.93;;;;;;;-3.56;60.72;98778.09;5050951;28;20499;-69
2024/01/03 07:00:08;;;;;;;0.80;0.80;;;;;;;-3.88;61.90;98740.16;5068810;28;20044;-69
2024/01/03 07:02:34;;;;;;;1.00;1.00;;;;;;;-3.63;61.13;98776.25;5068429;28;20054;-72
2024/01/03 07:07:29;;;;;;;0.95;0.95;;;;;;;-3.77;60.82;98746.34;5739022;22;20148;-66
2024/01/03 07:09:55;;;;;;;0.88;0.88;;;;;;;-3.96;61.55;98755.19;5055090;28;20033;-69
2024/01/03 07:12:20;;;;;;;1.33;1.23;;;;;;;-3.61;60.66;98767.00;5066297;28;20031;-71
2024/01/03 07:14:45;;;;;;;1.67;1.33;;;;;;;-3.85;61.37;98760.56;5047525;28;20079;-70
2024/01/03 07:17:11;;;;;;;0.68;0.68;;;;;;;-3.92;61.61;98725.72;5050433;28;20496;-69
2024/01/03 07:19:36;;;;;;;1.30;0.98;;;;;;;-3.75;61.06;98739.63;5068110;28;20039;-70
2024/01/03 07:22:01;;;;;;;0.70;0.70;;;;;;;-3.78;61.12;98739.56;5068143;28;20103;-70
2024/01/03 07:24:27;;;;;;;2.13;1.85;;;;;;;-4.22;62.17;98699.69;5050311;28;20031;-70
2024/01/03 07:26:52;;;;;;;0.60;0.60;;;;;;;-3.95;62.33;98728.19;5050051;28;20036;-71
2024/01/03 07:29:17;;;;;;;0.70;0.70;;;;;;;-3.96;62.55;98741.69;5067789;28;20483;-70
2024/01/03 07:31:43;;;;;;;1.30;1.20;;;;;;;-3.91;61.91;98740.09;5049822;28;20059;-72
2024/01/03 07:34:08;;;;;;;0.85;0.85;;;;;;;-3.81;61.31;98726.81;5067926;28;20021;-71
2024/01/03 07:36:33;;;;;;;1.55;0.98;;;;;;;-3.76;60.99;98729.47;5067934;28;20025;-71
2024/01/03 07:39:00;;;;;;;0.70;0.70;;;;;;;-3.75;60.96;98726.09;5067911;28;20088;-72
2024/01/03 07:41:26;;;;;;;0.90;0.90;;;;;;;-3.81;61.47;98749.66;5049859;28;20541;-71
2024/01/03 07:43:51;;;;;;;1.05;0.95;;;;;;;-3.74;60.88;98748.94;5050197;28;20032;-71
2024/01/03 07:46:17;;;;;;;1.20;1.08;;;;;;;-3.66;60.64;98751.66;5049945;28;20017;-70
2024/01/03 07:48:42;;;;;;;0.65;0.65;;;;;;;-3.83;60.83;98718.31;5067779;28;20029;-71
2024/01/03 07:51:08;;;;;;;0.77;0.77;;;;;;;-3.86;61.65;98812.06;5067828;28;20025;-70
2024/01/03 07:53:33;;;;;;;0.60;0.60;;;;;;;-4.02;61.07;98690.00;5067591;28;20366;-69
2024/01/03 07:55:59;;;;;;;0.70;0.70;;;;;;;-4.04;61.97;98709.41;5066900;28;20029;-69
2024/01/03 07:58:24;;;;;;;0.70;0.70;;;;;;;-3.88;61.83;98713.13;5049763;28;20029;-72
2024/01/03 08:00:49;;;;;;;0.82;0.82;;;;;;;-3.82;61.59;98764.81;5049509;28;20115;-73
2024/01/03 08:03:15;;;;;;;1.85;1.33;;;;;;;-3.70;60.77;98703.34;5067549;28;20045;-71
2024/01/03 08:05:40;;;;;;;1.27;1.20;;;;;;;-3.81;61.08;98706.53;5049661;28;20039;-69
2024/01/03 08:08:05;;;;;;;0.70;0.70;;;;;;;-3.82;60.95;98684.53;5067109;28;20045;-71
2024/01/03 08:10:31;;;;;;;0.60;0.60;;;;;;;-3.86;61.12;98703.91;5067464;28;20116;-70
2024/01/03 08:12:56;;;;;;;0.88;0.85;;;;;;;-3.54;60.59;98707.09;5067157;28;20024;-71
2024/01/03 08:15:22;;;;;;;3.17;1.45;;;;;;;-3.74;61.39;98755.72;5067175;28;20029;-71
2024/01/03 08:17:47;;;;;;;0.75;0.75;;;;;;;-3.98;61.90;98732.34;5067166;28;20024;-71
2024/01/03 08:20:12;;;;;;;0.98;0.93;;;;;;;-3.62;60.80;98752.59;5067288;28;20091;-70
2024/01/03 08:22:38;;;;;;;1.15;1.05;;;;;;;-3.72;60.92;98695.72;5067020;28;20025;-70
2024/01/03 08:25:04;;;;;;;0.95;0.95;;;;;;;-3.88;62.03;98717.34;5049189;28;20114;-71
2024/01/03 08:27:31;;;;;;;0.60;0.60;;;;;;;-3.58;60.41;98690.97;5066922;28;20028;-70
2024/01/03 08:29:56;;;;;;;0.63;0.63;;;;;;;-3.78;61.37;98757.31;5067192;28;20025;-71
2024/01/03 08:32:25;;;;;;;0.60;0.60;;;;;;;-3.93;61.71;98668.22;5048984;28;20450;-70
2024/01/03 08:34:51;;;;;;;1.60;1.10;;;;;;;-3.75;61.40;98726.09;5066908;28;20027;-71
2024/01/03 08:37:16;;;;;;;2.95;1.25;;;;;;;-3.64;61.19;98741.53;5048701;28;20025;-72
2024/01/03 08:39:41;;;;;;;2.58;1.67;;;;;;;-3.61;60.99;98728.97;5048973;28;20028;-70
2024/01/03 08:42:07;;;;;;;0.95;0.90;;;;;;;-3.61;61.10;98729.78;5048704;28;20388;-70
2024/01/03 08:44:32;;;;;;;1.33;1.23;;;;;;;-3.62;61.16;98725.56;5066955;28;20027;-72
2024/01/03 08:46:58;;;;;;;2.22;1.90;;;;;;;-3.65;61.05;98720.41;5066609;28;20044;-70
2024/01/03 08:49:23;;;;;;;0.90;0.90;;;;;;;-3.65;61.39;98722.94;5048483;28;20029;-71
2024/01/03 08:51:49;;;;;;;1.60;0.95;;;;;;;-3.46;60.42;98722.47;5066670;28;20029;-70
2024/01/03 08:54:14;;;;;;;0.90;0.90;;;;;;;-3.56;61.21;98724.81;5066473;28;20425;-72
2024/01/03 08:56:40;;;;;;;0.88;0.88;;;;;;;-3.68;61.08;98719.47;5066318;28;20033;-70
2024/01/03 08:59:06;;;;;;;1.02;1.00;;;;;;;-3.36;60.46;98729.47;5066507;28;20086;-72
2024/01/03 09:01:34;;;;;;;1.02;0.95;;;;;;;-3.37;60.58;98720.16;5048252;28;20031;-70
2024/01/03 09:04:00;;;;;;;0.70;0.70;;;;;;;-3.54;60.54;98710.50;5048469;28;20067;-70
2024/01/03 09:06:26;;;;;;;0.80;0.80;;;;;;;-3.61;61.35;98728.97;5066326;28;20029;-70
2024/01/03 09:08:52;;;;;;;8.52;1.15;;;;;;;-3.53;60.95;98702.03;5047160;28;20052;-69
2024/01/03 09:11:25;;;;;;;0.80;0.80;;;;;;;-3.44;60.38;98725.91;5066224;28;20476;-72
2024/01/03 09:13:51;;;;;;;0.88;0.88;;;;;;;-3.44;60.19;98710.69;5066064;28;20029;-72
2024/01/03 09:16:19;;;;;;;0.70;0.70;;;;;;;-3.31;59.69;98727.88;5066166;28;20492;-70
2024/01/03 09:18:46;;;;;;;0.88;0.88;;;;;;;-3.25;59.79;98758.47;5048111;28;20031;-70
2024/01/03 09:21:11;;;;;;;0.60;0.60;;;;;;;-3.46;60.45;98747.84;5066045;28;20021;-71
2024/01/03 09:23:37;;;;;;;0.70;0.70;;;;;;;-3.56;60.92;98760.34;5065859;28;20376;-70
2024/01/03 09:26:06;;;;;;;1.10;1.10;;;;;;;-3.21;59.36;98697.63;5066088;28;20029;-71
2024/01/03 09:28:41;;;;;;;0.80;0.80;;;;;;;-3.44;60.24;98703.94;5123057;27;20112;-68
2024/01/03 09:31:07;;;;;;;0.60;0.60;;;;;;;-3.13;58.81;98721.47;5123102;28;20031;-67
2024/01/03 09:33:33;;;;;;;0.75;0.75;;;;;;;-3.34;60.09;98720.22;5121669;28;20065;-66
2024/01/03 09:35:58;;;;;;;1.13;0.77;;;;;;;-3.29;59.98;98740.59;5123067;28;20034;-66
2024/01/03 09:38:24;;;;;;;0.60;0.60;;;;;;;-3.33;59.93;98714.31;5121422;28;20166;-66
2024/01/03 09:40:49;;;;;;;0.73;0.73;;;;;;;-3.16;59.87;98742.56;5121714;28;20244;-68
2024/01/03 09:43:16;;;;;;;0.93;0.93;;;;;;;-3.20;59.76;98724.69;5121567;28;20049;-67
2024/01/03 09:45:41;;;;;;;0.60;0.60;;;;;;;-3.36;60.39;98732.00;5123146;28;20032;-67
2024/01/03 09:48:08;;;;;;;0.70;0.70;;;;;;;-3.30;60.29;98734.66;5122671;28;20111;-67
2024/01/03 09:50:34;;;;;;;0.73;0.73;;;;;;;-3.25;60.23;98743.25;5122616;28;20031;-68
2024/01/03 09:53:00;;;;;;;0.60;0.60;;;;;;;-3.19;60.06;98724.72;5122611;28;20028;-68
2024/01/03 09:55:27;;;;;;;0.70;0.70;;;;;;;-3.04;59.32;98734.34;5122719;28;20024;-66
2024/01/03 09:57:54;;;;;;;0.95;0.93;;;;;;;-2.94;59.10;98775.97;5122590;28;20018;-67
2024/01/03 10:00:20;;;;;;;0.77;0.77;;;;;;;-2.95;58.74;98740.41;5122552;28;20040;-67
2024/01/03 10:02:47;;;;;;;0.60;0.60;;;;;;;-3.30;60.22;98704.22;5122232;28;20038;-66
2024/01/03 10:05:22;;;;;;;0.73;0.73;;;;;;;-3.29;60.83;98690.69;5121117;28;20087;-68
2024/01/03 10:07:48;;;;;;;0.93;0.93;;;;;;;-3.12;60.14;98707.94;5121963;28;20028;-67
2024/01/03 10:10:28;;;;;;;0.80;0.80;;;;;;;-2.97;58.93;98698.91;5122292;28;20027;-67
2024/01/03 10:12:53;;;;;;;0.80;0.80;;;;;;;-2.98;58.62;98713.28;5122216;28;20030;-66
2024/01/03 10:15:19;;;;;;;0.73;0.73;;;;;;;-2.95;59.57;98697.22;5122233;28;20016;-68
2024/01/03 10:17:46;;;;;;;0.77;0.77;;;;;;;-3.12;60.02;98756.19;5120653;28;20015;-66
2024/01/03 10:20:28;;;;;;;0.80;0.80;;;;;;;-2.68;58.11;98755.31;5122331;28;20095;-67
2024/01/03 10:23:04;;;;;;;0.88;0.88;;;;;;;-2.86;58.38;98718.59;5121969;28;20011;-67
2024/01/03 10:25:30;;;;;;;1.30;1.20;;;;;;;-2.82;58.37;98705.94;5120860;28;20042;-69
2024/01/03 10:28:04;;;;;;;1.15;1.10;;;;;;;-2.69;58.27;98799.34;5120551;28;20048;-67
2024/01/03 10:30:30;;;;;;;0.85;0.85;;;;;;;-3.04;59.28;98759.72;5121897;28;20019;-67
2024/01/03 10:33:03;;;;;;;1.63;0.93;;;;;;;-2.71;58.14;98746.78;5120513;28;20050;-67
2024/01/03 10:35:35;;;;;;;1.13;1.13;;;;;;;-2.78;58.26;98711.09;5121586;28;20024;-66
2024/01/03 10:38:03;;;;;;;2.67;0.90;;;;;;;-2.84;58.80;98731.31;5118985;28;20121;-67
2024/01/03 10:40:30;;;;;;;0.93;0.93;;;;;;;-2.88;59.07;98717.72;5107944;28;20084;-67
2024/01/03 10:42:56;;;;;;;0.77;0.77;;;;;;;-2.84;58.87;98700.00;5107955;28;20073;-66
2024/01/03 10:45:22;;;;;;;0.60;0.60;;;;;;;-2.85;59.28;98782.94;5108206;28;20024;-66
2024/01/03 10:47:48;;;;;;;0.65;0.65;;;;;;;-3.01;59.39;98698.00;5106619;28;20031;-66
2024/01/03 10:50:13;;;;;;;0.68;0.68;;;;;;;-2.94;59.77;98701.50;5108027;28;20024;-66
2024/01/03 10:52:42;;;;;;;0.80;0.80;;;;;;;-2.72;58.57;98709.50;5107799;28;20020;-68
2024/01/03 10:55:19;;;;;;;0.60;0.60;;;;;;;-2.94;58.83;98669.31;5108063;28;20024;-67
2024/01/03 10:58:12;;;;;;;0.75;0.75;;;;;;;-2.86;58.35;98689.81;5107598;28;20093;-65
2024/01/03 11:00:50;;;;;;;0.60;0.60;;;;;;;-3.04;59.18;98696.25;5103307;28;20042;-65
2024/01/03 11:03:24;;;;;;;0.70;0.70;;;;;;;-3.10;59.80;98680.91;5107659;28;20026;-65
2024/01/03 11:06:04;;;;;;;0.60;0.60;;;;;;;-3.08;59.80;98673.31;5106583;28;20043;-67
2024/01/03 11:08:38;;;;;;;0.60;0.60;;;;;;;-3.12;59.79;98675.81;5106088;28;20035;-67
2024/01/03 11:11:03;;;;;;;0.70;0.70;;;;;;;-3.11;60.33;98680.03;5107747;28;20024;-68
2024/01/03 11:13:34;;;;;;;0.80;0.80;;;;;;;-2.77;59.20;98676.41;5107681;28;20027;-67
2024/01/03 11:16:02;;;;;;;0.70;0.70;;;;;;;-2.83;58.82;98678.84;5106343;28;20081;-66
2024/01/03 11:18:42;;;;;;;0.70;0.70;;;;;;;-2.82;59.31;98744.03;5107714;28;20018;-67
2024/01/03 11:21:30;;;;;;;1.35;1.25;;;;;;;-2.88;58.90;98701.63;5107333;28;20030;-67
2024/01/03 11:23:56;;;;;;;1.27;0.98;;;;;;;-3.00;59.61;98674.28;5105964;28;20050;-67
2024/01/03 11:26:56;;;;;;;6.80;1.20;;;;;;;-2.70;58.75;98680.75;5107079;28;20035;-67
2024/01/03 11:29:46;;;;;;;0.60;0.60;;;;;;;-2.78;58.68;98662.84;5107314;28;20016;-67
2024/01/03 11:32:25;;;;;;;0.60;0.60;;;;;;;-2.98;59.29;98675.19;5107281;28;20020;-66
2024/01/03 11:34:50;;;;;;;0.75;0.75;;;;;;;-3.06;59.89;98657.28;5105681;28;20036;-67